sensor_id;sensor_type;location;lat;lon;timestamp;P1;durP1;ratioP1;P2;durP2;ratioP2
33802;SDS011;20110;53.120;5.786;2022-12-11T00:01:14;226.05;;;30.23;;
33802;SDS011;20110;53.120;5.786;2022-12-11T00:03:43;178.80;;;30.17;;
33802;SDS011;20110;53.120;5.786;2022-12-11T00:06:10;377.85;;;38.08;;
33802;SDS011;20110;53.120;5.786;2022-12-11T00:08:39;159.38;;;28.33;;
33802;SDS011;20110;53.120;5.786;2022-12-11T00:11:07;69.30;;;17.13;;
33802;SDS011;20110;53.120;5.786;2022-12-11T00:13:33;34.35;;;10.57;;
33802;SDS011;20110;53.120;5.786;2022-12-11T00:15:59;122.32;;;25.98;;
33802;SDS011;20110;53.120;5.786;2022-12-11T00:18:25;107.00;;;22.38;;
33802;SDS011;20110;53.120;5.786;2022-12-11T00:20:51;137.52;;;24.48;;
33802;SDS011;20110;53.120;5.786;2022-12-11T00:23:17;129.40;;;27.25;;
33802;SDS011;20110;53.120;5.786;2022-12-11T00:25:43;86.45;;;19.80;;
33802;SDS011;20110;53.120;5.786;2022-12-11T00:28:12;154.70;;;28.38;;
33802;SDS011;20110;53.120;5.786;2022-12-11T00:30:42;122.47;;;26.90;;
33802;SDS011;20110;53.120;5.786;2022-12-11T00:33:09;203.68;;;31.13;;
33802;SDS011;20110;53.120;5.786;2022-12-11T00:35:37;153.27;;;27.33;;
33802;SDS011;20110;53.120;5.786;2022-12-11T00:38:14;129.95;;;23.98;;
33802;SDS011;20110;53.120;5.786;2022-12-11T00:40:42;153.35;;;28.73;;
33802;SDS011;20110;53.120;5.786;2022-12-11T00:43:08;199.55;;;34.10;;
33802;SDS011;20110;53.120;5.786;2022-12-11T00:45:35;81.88;;;19.08;;
33802;SDS011;20110;53.120;5.786;2022-12-11T00:48:11;44.15;;;15.25;;
33802;SDS011;20110;53.120;5.786;2022-12-11T00:50:38;97.97;;;22.88;;
33802;SDS011;20110;53.120;5.786;2022-12-11T00:53:05;131.13;;;26.65;;
33802;SDS011;20110;53.120;5.786;2022-12-11T00:55:35;104.03;;;25.05;;
33802;SDS011;20110;53.120;5.786;2022-12-11T00:58:03;153.23;;;30.08;;
33802;SDS011;20110;53.120;5.786;2022-12-11T01:00:29;68.00;;;19.30;;
33802;SDS011;20110;53.120;5.786;2022-12-11T01:02:55;79.50;;;21.02;;
33802;SDS011;20110;53.120;5.786;2022-12-11T01:05:21;155.68;;;31.52;;
33802;SDS011;20110;53.120;5.786;2022-12-11T01:07:47;144.60;;;28.70;;
33802;SDS011;20110;53.120;5.786;2022-12-11T01:10:12;133.18;;;25.85;;
33802;SDS011;20110;53.120;5.786;2022-12-11T01:15:27;92.15;;;23.13;;
33802;SDS011;20110;53.120;5.786;2022-12-11T01:17:57;106.00;;;24.38;;
33802;SDS011;20110;53.120;5.786;2022-12-11T01:20:23;179.75;;;32.35;;
33802;SDS011;20110;53.120;5.786;2022-12-11T01:22:52;53.45;;;15.68;;
33802;SDS011;20110;53.120;5.786;2022-12-11T01:25:24;64.57;;;19.00;;
33802;SDS011;20110;53.120;5.786;2022-12-11T01:27:53;114.20;;;27.38;;
33802;SDS011;20110;53.120;5.786;2022-12-11T01:30:20;81.93;;;19.75;;
33802;SDS011;20110;53.120;5.786;2022-12-11T01:32:49;115.20;;;26.73;;
33802;SDS011;20110;53.120;5.786;2022-12-11T01:35:15;74.40;;;20.80;;
33802;SDS011;20110;53.120;5.786;2022-12-11T01:37:42;115.13;;;23.70;;
33802;SDS011;20110;53.120;5.786;2022-12-11T01:40:08;106.82;;;24.63;;
33802;SDS011;20110;53.120;5.786;2022-12-11T01:42:40;110.20;;;27.58;;
33802;SDS011;20110;53.120;5.786;2022-12-11T01:47:59;118.82;;;26.20;;
33802;SDS011;20110;53.120;5.786;2022-12-11T01:50:33;130.93;;;29.17;;
33802;SDS011;20110;53.120;5.786;2022-12-11T01:53:06;90.13;;;23.02;;
33802;SDS011;20110;53.120;5.786;2022-12-11T01:55:38;145.82;;;31.55;;
33802;SDS011;20110;53.120;5.786;2022-12-11T01:58:05;85.78;;;22.95;;
33802;SDS011;20110;53.120;5.786;2022-12-11T02:00:32;108.70;;;26.50;;
33802;SDS011;20110;53.120;5.786;2022-12-11T02:02:58;39.63;;;16.45;;
33802;SDS011;20110;53.120;5.786;2022-12-11T02:05:24;104.93;;;25.88;;
33802;SDS011;20110;53.120;5.786;2022-12-11T02:07:51;115.10;;;28.13;;
33802;SDS011;20110;53.120;5.786;2022-12-11T02:11:24;125.43;;;28.10;;
33802;SDS011;20110;53.120;5.786;2022-12-11T02:13:56;73.43;;;23.80;;
33802;SDS011;20110;53.120;5.786;2022-12-11T02:28:49;172.45;;;34.92;;
33802;SDS011;20110;53.120;5.786;2022-12-11T02:31:40;140.80;;;33.53;;
33802;SDS011;20110;53.120;5.786;2022-12-11T02:34:22;146.80;;;31.33;;
33802;SDS011;20110;53.120;5.786;2022-12-11T02:37:31;182.80;;;34.15;;
33802;SDS011;20110;53.120;5.786;2022-12-11T02:40:01;179.52;;;32.30;;
33802;SDS011;20110;53.120;5.786;2022-12-11T02:42:35;113.82;;;23.95;;
33802;SDS011;20110;53.120;5.786;2022-12-11T02:45:05;194.07;;;36.03;;
33802;SDS011;20110;53.120;5.786;2022-12-11T02:47:34;201.35;;;37.75;;
33802;SDS011;20110;53.120;5.786;2022-12-11T02:50:05;183.63;;;37.15;;
33802;SDS011;20110;53.120;5.786;2022-12-11T02:52:37;203.43;;;38.20;;
33802;SDS011;20110;53.120;5.786;2022-12-11T02:55:07;217.05;;;39.17;;
33802;SDS011;20110;53.120;5.786;2022-12-11T02:57:41;205.38;;;38.10;;
33802;SDS011;20110;53.120;5.786;2022-12-11T03:00:17;159.50;;;33.10;;
33802;SDS011;20110;53.120;5.786;2022-12-11T03:02:43;213.15;;;42.25;;
33802;SDS011;20110;53.120;5.786;2022-12-11T03:05:10;182.52;;;39.33;;
33802;SDS011;20110;53.120;5.786;2022-12-11T03:07:38;252.45;;;38.88;;
33802;SDS011;20110;53.120;5.786;2022-12-11T03:10:07;216.55;;;39.72;;
33802;SDS011;20110;53.120;5.786;2022-12-11T03:12:41;85.47;;;23.05;;
33802;SDS011;20110;53.120;5.786;2022-12-11T03:15:12;160.32;;;33.83;;
33802;SDS011;20110;53.120;5.786;2022-12-11T03:20:44;172.57;;;38.20;;
33802;SDS011;20110;53.120;5.786;2022-12-11T03:23:22;162.38;;;32.40;;
33802;SDS011;20110;53.120;5.786;2022-12-11T03:26:10;150.80;;;30.45;;
33802;SDS011;20110;53.120;5.786;2022-12-11T03:28:48;184.10;;;35.90;;
33802;SDS011;20110;53.120;5.786;2022-12-11T03:31:39;130.07;;;30.55;;
33802;SDS011;20110;53.120;5.786;2022-12-11T03:34:15;168.60;;;30.70;;
33802;SDS011;20110;53.120;5.786;2022-12-11T03:36:57;203.02;;;35.88;;
33802;SDS011;20110;53.120;5.786;2022-12-11T03:39:28;227.88;;;37.15;;
33802;SDS011;20110;53.120;5.786;2022-12-11T03:42:00;202.90;;;38.78;;
33802;SDS011;20110;53.120;5.786;2022-12-11T03:44:30;212.20;;;36.03;;
33802;SDS011;20110;53.120;5.786;2022-12-11T03:46:59;227.57;;;39.85;;
33802;SDS011;20110;53.120;5.786;2022-12-11T03:49:31;176.65;;;34.60;;
33802;SDS011;20110;53.120;5.786;2022-12-11T03:52:04;177.40;;;33.20;;
33802;SDS011;20110;53.120;5.786;2022-12-11T03:54:33;173.98;;;33.00;;
33802;SDS011;20110;53.120;5.786;2022-12-11T03:57:00;198.00;;;34.10;;
33802;SDS011;20110;53.120;5.786;2022-12-11T03:59:28;162.20;;;29.42;;
33802;SDS011;20110;53.120;5.786;2022-12-11T04:01:54;163.63;;;34.67;;
33802;SDS011;20110;53.120;5.786;2022-12-11T04:04:20;131.50;;;29.70;;
33802;SDS011;20110;53.120;5.786;2022-12-11T04:06:46;186.50;;;34.67;;
33802;SDS011;20110;53.120;5.786;2022-12-11T04:09:11;150.48;;;31.13;;
33802;SDS011;20110;53.120;5.786;2022-12-11T04:11:37;162.10;;;33.80;;
33802;SDS011;20110;53.120;5.786;2022-12-11T04:14:07;187.77;;;36.38;;
33802;SDS011;20110;53.120;5.786;2022-12-11T04:16:55;176.88;;;34.22;;
33802;SDS011;20110;53.120;5.786;2022-12-11T04:19:23;202.18;;;38.70;;
33802;SDS011;20110;53.120;5.786;2022-12-11T04:22:12;175.30;;;33.67;;
33802;SDS011;20110;53.120;5.786;2022-12-11T04:24:50;168.35;;;32.00;;
33802;SDS011;20110;53.120;5.786;2022-12-11T04:27:17;189.63;;;34.42;;
33802;SDS011;20110;53.120;5.786;2022-12-11T04:30:04;235.73;;;37.95;;
33802;SDS011;20110;53.120;5.786;2022-12-11T04:32:33;85.18;;;21.90;;
33802;SDS011;20110;53.120;5.786;2022-12-11T04:34:59;139.88;;;28.17;;
33802;SDS011;20110;53.120;5.786;2022-12-11T04:37:26;144.45;;;32.83;;
33802;SDS011;20110;53.120;5.786;2022-12-11T04:39:52;188.45;;;35.20;;
33802;SDS011;20110;53.120;5.786;2022-12-11T04:42:18;159.77;;;30.88;;
33802;SDS011;20110;53.120;5.786;2022-12-11T04:44:44;135.70;;;28.38;;
33802;SDS011;20110;53.120;5.786;2022-12-11T04:47:10;148.70;;;31.73;;
33802;SDS011;20110;53.120;5.786;2022-12-11T04:49:35;175.50;;;33.95;;
33802;SDS011;20110;53.120;5.786;2022-12-11T04:52:01;195.50;;;37.65;;
33802;SDS011;20110;53.120;5.786;2022-12-11T04:54:28;165.90;;;34.35;;
33802;SDS011;20110;53.120;5.786;2022-12-11T04:56:55;171.80;;;30.85;;
33802;SDS011;20110;53.120;5.786;2022-12-11T04:59:21;150.98;;;30.38;;
33802;SDS011;20110;53.120;5.786;2022-12-11T05:01:47;166.95;;;34.45;;
33802;SDS011;20110;53.120;5.786;2022-12-11T05:04:12;137.40;;;28.27;;
33802;SDS011;20110;53.120;5.786;2022-12-11T05:06:38;171.75;;;35.10;;
33802;SDS011;20110;53.120;5.786;2022-12-11T05:09:04;114.43;;;26.95;;
33802;SDS011;20110;53.120;5.786;2022-12-11T05:11:30;97.78;;;26.05;;
33802;SDS011;20110;53.120;5.786;2022-12-11T05:13:57;150.15;;;31.02;;
33802;SDS011;20110;53.120;5.786;2022-12-11T05:16:23;154.15;;;32.33;;
33802;SDS011;20110;53.120;5.786;2022-12-11T05:18:48;149.55;;;30.65;;
33802;SDS011;20110;53.120;5.786;2022-12-11T05:21:14;144.48;;;30.95;;
33802;SDS011;20110;53.120;5.786;2022-12-11T05:23:41;133.57;;;29.95;;
33802;SDS011;20110;53.120;5.786;2022-12-11T05:26:09;151.82;;;31.85;;
33802;SDS011;20110;53.120;5.786;2022-12-11T05:28:38;111.00;;;26.88;;
33802;SDS011;20110;53.120;5.786;2022-12-11T05:31:06;135.98;;;31.92;;
33802;SDS011;20110;53.120;5.786;2022-12-11T05:33:43;115.35;;;27.95;;
33802;SDS011;20110;53.120;5.786;2022-12-11T05:36:21;136.35;;;31.38;;
33802;SDS011;20110;53.120;5.786;2022-12-11T05:38:55;162.82;;;33.88;;
33802;SDS011;20110;53.120;5.786;2022-12-11T05:41:24;125.93;;;30.80;;
33802;SDS011;20110;53.120;5.786;2022-12-11T05:43:53;138.82;;;31.25;;
33802;SDS011;20110;53.120;5.786;2022-12-11T05:46:20;146.27;;;31.45;;
33802;SDS011;20110;53.120;5.786;2022-12-11T05:48:49;127.95;;;29.33;;
33802;SDS011;20110;53.120;5.786;2022-12-11T05:51:20;137.18;;;31.92;;
33802;SDS011;20110;53.120;5.786;2022-12-11T05:53:47;157.32;;;32.25;;
33802;SDS011;20110;53.120;5.786;2022-12-11T05:56:16;149.30;;;32.20;;
33802;SDS011;20110;53.120;5.786;2022-12-11T05:58:49;148.23;;;33.38;;
33802;SDS011;20110;53.120;5.786;2022-12-11T06:01:18;163.50;;;34.58;;
33802;SDS011;20110;53.120;5.786;2022-12-11T06:03:53;169.07;;;34.92;;
33802;SDS011;20110;53.120;5.786;2022-12-11T06:06:20;137.07;;;32.22;;
33802;SDS011;20110;53.120;5.786;2022-12-11T06:08:51;161.63;;;32.70;;
33802;SDS011;20110;53.120;5.786;2022-12-11T06:11:20;173.02;;;33.60;;
33802;SDS011;20110;53.120;5.786;2022-12-11T06:13:47;163.93;;;34.45;;
33802;SDS011;20110;53.120;5.786;2022-12-11T06:16:14;150.23;;;34.05;;
33802;SDS011;20110;53.120;5.786;2022-12-11T06:18:41;138.88;;;32.95;;
33802;SDS011;20110;53.120;5.786;2022-12-11T06:21:13;191.25;;;36.83;;
33802;SDS011;20110;53.120;5.786;2022-12-11T06:23:40;158.88;;;34.85;;
33802;SDS011;20110;53.120;5.786;2022-12-11T06:26:08;163.50;;;34.13;;
33802;SDS011;20110;53.120;5.786;2022-12-11T06:28:35;120.80;;;30.65;;
33802;SDS011;20110;53.120;5.786;2022-12-11T06:31:01;140.32;;;32.65;;
33802;SDS011;20110;53.120;5.786;2022-12-11T06:33:28;133.75;;;28.98;;
33802;SDS011;20110;53.120;5.786;2022-12-11T06:35:54;143.48;;;33.63;;
33802;SDS011;20110;53.120;5.786;2022-12-11T06:38:21;140.27;;;29.58;;
33802;SDS011;20110;53.120;5.786;2022-12-11T06:40:53;117.30;;;28.15;;
33802;SDS011;20110;53.120;5.786;2022-12-11T06:43:20;143.30;;;34.35;;
33802;SDS011;20110;53.120;5.786;2022-12-11T06:45:46;158.82;;;33.08;;
33802;SDS011;20110;53.120;5.786;2022-12-11T06:48:12;135.27;;;32.15;;
33802;SDS011;20110;53.120;5.786;2022-12-11T06:50:38;173.82;;;33.92;;
33802;SDS011;20110;53.120;5.786;2022-12-11T06:53:04;151.00;;;31.33;;
33802;SDS011;20110;53.120;5.786;2022-12-11T06:55:29;152.52;;;33.63;;
33802;SDS011;20110;53.120;5.786;2022-12-11T06:57:59;157.48;;;31.40;;
33802;SDS011;20110;53.120;5.786;2022-12-11T07:00:25;148.63;;;34.47;;
33802;SDS011;20110;53.120;5.786;2022-12-11T07:02:51;153.38;;;34.38;;
33802;SDS011;20110;53.120;5.786;2022-12-11T07:05:17;217.43;;;35.63;;
33802;SDS011;20110;53.120;5.786;2022-12-11T07:07:43;155.15;;;32.35;;
33802;SDS011;20110;53.120;5.786;2022-12-11T07:10:08;101.57;;;24.45;;
33802;SDS011;20110;53.120;5.786;2022-12-11T07:12:35;123.95;;;27.58;;
33802;SDS011;20110;53.120;5.786;2022-12-11T07:15:01;135.18;;;32.08;;
33802;SDS011;20110;53.120;5.786;2022-12-11T07:17:29;155.82;;;34.10;;
33802;SDS011;20110;53.120;5.786;2022-12-11T07:19:55;151.88;;;32.33;;
33802;SDS011;20110;53.120;5.786;2022-12-11T07:22:21;108.40;;;27.85;;
33802;SDS011;20110;53.120;5.786;2022-12-11T07:24:47;118.05;;;29.80;;
33802;SDS011;20110;53.120;5.786;2022-12-11T07:27:12;140.25;;;28.42;;
33802;SDS011;20110;53.120;5.786;2022-12-11T07:29:38;116.05;;;26.80;;
33802;SDS011;20110;53.120;5.786;2022-12-11T07:32:04;159.57;;;34.13;;
33802;SDS011;20110;53.120;5.786;2022-12-11T07:34:30;145.00;;;31.05;;
33802;SDS011;20110;53.120;5.786;2022-12-11T07:36:56;151.77;;;34.13;;
33802;SDS011;20110;53.120;5.786;2022-12-11T07:39:22;167.85;;;32.33;;
33802;SDS011;20110;53.120;5.786;2022-12-11T07:41:48;127.05;;;29.48;;
33802;SDS011;20110;53.120;5.786;2022-12-11T07:44:14;143.27;;;33.13;;
33802;SDS011;20110;53.120;5.786;2022-12-11T07:46:39;157.85;;;35.72;;
33802;SDS011;20110;53.120;5.786;2022-12-11T07:49:05;163.25;;;35.25;;
33802;SDS011;20110;53.120;5.786;2022-12-11T07:51:32;102.38;;;27.35;;
33802;SDS011;20110;53.120;5.786;2022-12-11T07:54:04;141.40;;;33.75;;
33802;SDS011;20110;53.120;5.786;2022-12-11T07:56:41;106.53;;;25.05;;
33802;SDS011;20110;53.120;5.786;2022-12-11T07:59:08;135.95;;;30.33;;
33802;SDS011;20110;53.120;5.786;2022-12-11T08:01:35;135.48;;;32.55;;
33802;SDS011;20110;53.120;5.786;2022-12-11T08:04:03;121.95;;;27.23;;
33802;SDS011;20110;53.120;5.786;2022-12-11T08:06:32;110.40;;;29.38;;
33802;SDS011;20110;53.120;5.786;2022-12-11T08:09:01;101.10;;;27.45;;
33802;SDS011;20110;53.120;5.786;2022-12-11T08:11:30;148.82;;;31.23;;
33802;SDS011;20110;53.120;5.786;2022-12-11T08:13:58;119.10;;;29.65;;
33802;SDS011;20110;53.120;5.786;2022-12-11T08:16:25;110.88;;;28.15;;
33802;SDS011;20110;53.120;5.786;2022-12-11T08:18:51;139.23;;;32.88;;
33802;SDS011;20110;53.120;5.786;2022-12-11T08:21:21;147.95;;;33.83;;
33802;SDS011;20110;53.120;5.786;2022-12-11T08:23:49;141.93;;;32.10;;
33802;SDS011;20110;53.120;5.786;2022-12-11T08:26:18;144.65;;;33.88;;
33802;SDS011;20110;53.120;5.786;2022-12-11T08:28:48;141.38;;;33.80;;
33802;SDS011;20110;53.120;5.786;2022-12-11T08:31:14;124.20;;;32.63;;
33802;SDS011;20110;53.120;5.786;2022-12-11T08:33:42;114.45;;;30.63;;
33802;SDS011;20110;53.120;5.786;2022-12-11T08:36:10;144.38;;;30.67;;
33802;SDS011;20110;53.120;5.786;2022-12-11T08:38:39;85.57;;;26.40;;
33802;SDS011;20110;53.120;5.786;2022-12-11T08:41:07;125.13;;;32.40;;
33802;SDS011;20110;53.120;5.786;2022-12-11T08:43:34;117.43;;;30.80;;
33802;SDS011;20110;53.120;5.786;2022-12-11T08:46:00;132.30;;;33.25;;
33802;SDS011;20110;53.120;5.786;2022-12-11T08:48:25;145.38;;;34.80;;
33802;SDS011;20110;53.120;5.786;2022-12-11T08:50:51;111.75;;;29.52;;
33802;SDS011;20110;53.120;5.786;2022-12-11T08:53:17;136.07;;;34.15;;
33802;SDS011;20110;53.120;5.786;2022-12-11T08:55:43;122.25;;;30.95;;
33802;SDS011;20110;53.120;5.786;2022-12-11T08:58:08;134.20;;;33.67;;
33802;SDS011;20110;53.120;5.786;2022-12-11T09:00:34;125.53;;;33.80;;
33802;SDS011;20110;53.120;5.786;2022-12-11T09:03:00;134.38;;;33.35;;
33802;SDS011;20110;53.120;5.786;2022-12-11T09:05:26;136.65;;;32.58;;
33802;SDS011;20110;53.120;5.786;2022-12-11T09:07:52;120.10;;;28.25;;
33802;SDS011;20110;53.120;5.786;2022-12-11T09:10:17;115.60;;;28.77;;
33802;SDS011;20110;53.120;5.786;2022-12-11T09:12:43;129.82;;;31.55;;
33802;SDS011;20110;53.120;5.786;2022-12-11T09:15:09;111.30;;;31.17;;
33802;SDS011;20110;53.120;5.786;2022-12-11T09:17:35;141.88;;;34.22;;
33802;SDS011;20110;53.120;5.786;2022-12-11T09:20:02;142.85;;;33.10;;
33802;SDS011;20110;53.120;5.786;2022-12-11T09:22:30;128.98;;;34.42;;
33802;SDS011;20110;53.120;5.786;2022-12-11T09:24:57;120.40;;;32.72;;
33802;SDS011;20110;53.120;5.786;2022-12-11T09:27:23;114.60;;;32.17;;
33802;SDS011;20110;53.120;5.786;2022-12-11T09:29:51;118.70;;;32.67;;
33802;SDS011;20110;53.120;5.786;2022-12-11T09:32:16;97.28;;;27.27;;
33802;SDS011;20110;53.120;5.786;2022-12-11T09:34:42;91.63;;;30.50;;
33802;SDS011;20110;53.120;5.786;2022-12-11T09:37:08;129.25;;;40.05;;
33802;SDS011;20110;53.120;5.786;2022-12-11T09:39:34;89.45;;;24.83;;
33802;SDS011;20110;53.120;5.786;2022-12-11T09:42:14;84.03;;;25.98;;
33802;SDS011;20110;53.120;5.786;2022-12-11T09:44:51;97.18;;;29.92;;
33802;SDS011;20110;53.120;5.786;2022-12-11T09:47:35;100.40;;;26.67;;
33802;SDS011;20110;53.120;5.786;2022-12-11T09:50:16;63.88;;;20.98;;
33802;SDS011;20110;53.120;5.786;2022-12-11T09:55:23;88.45;;;29.13;;
33802;SDS011;20110;53.120;5.786;2022-12-11T10:06:42;82.90;;;28.75;;
33802;SDS011;20110;53.120;5.786;2022-12-11T10:09:41;82.85;;;27.10;;
33802;SDS011;20110;53.120;5.786;2022-12-11T10:18:11;80.25;;;26.40;;
33802;SDS011;20110;53.120;5.786;2022-12-11T10:20:43;77.47;;;25.50;;
33802;SDS011;20110;53.120;5.786;2022-12-11T10:23:14;79.28;;;28.00;;
33802;SDS011;20110;53.120;5.786;2022-12-11T10:26:01;74.72;;;26.67;;
33802;SDS011;20110;53.120;5.786;2022-12-11T10:28:37;65.13;;;23.77;;
33802;SDS011;20110;53.120;5.786;2022-12-11T10:33:53;80.95;;;24.58;;
33802;SDS011;20110;53.120;5.786;2022-12-11T10:36:29;72.88;;;25.60;;
33802;SDS011;20110;53.120;5.786;2022-12-11T10:38:59;89.55;;;27.80;;
33802;SDS011;20110;53.120;5.786;2022-12-11T10:44:14;72.90;;;26.23;;
33802;SDS011;20110;53.120;5.786;2022-12-11T10:47:13;68.35;;;25.77;;
33802;SDS011;20110;53.120;5.786;2022-12-11T10:49:50;62.70;;;23.67;;
33802;SDS011;20110;53.120;5.786;2022-12-11T10:52:30;79.13;;;28.35;;
33802;SDS011;20110;53.120;5.786;2022-12-11T10:55:01;65.20;;;23.20;;
33802;SDS011;20110;53.120;5.786;2022-12-11T10:57:57;65.15;;;25.75;;
33802;SDS011;20110;53.120;5.786;2022-12-11T11:00:29;82.50;;;31.85;;
33802;SDS011;20110;53.120;5.786;2022-12-11T11:03:22;76.63;;;29.33;;
33802;SDS011;20110;53.120;5.786;2022-12-11T11:08:37;76.22;;;28.35;;
33802;SDS011;20110;53.120;5.786;2022-12-11T11:11:24;71.70;;;25.85;;
33802;SDS011;20110;53.120;5.786;2022-12-11T11:16:44;71.55;;;25.48;;
33802;SDS011;20110;53.120;5.786;2022-12-11T11:21:58;39.97;;;17.73;;
33802;SDS011;20110;53.120;5.786;2022-12-11T11:27:24;68.47;;;25.88;;
33802;SDS011;20110;53.120;5.786;2022-12-11T11:30:00;74.60;;;29.08;;
33802;SDS011;20110;53.120;5.786;2022-12-11T11:32:42;71.05;;;28.80;;
33802;SDS011;20110;53.120;5.786;2022-12-11T11:37:37;71.80;;;28.58;;
33802;SDS011;20110;53.120;5.786;2022-12-11T11:40:14;70.20;;;27.38;;
33802;SDS011;20110;53.120;5.786;2022-12-11T11:42:50;61.53;;;24.30;;
33802;SDS011;20110;53.120;5.786;2022-12-11T11:45:57;70.20;;;27.88;;
33802;SDS011;20110;53.120;5.786;2022-12-11T11:48:35;69.95;;;27.02;;
33802;SDS011;20110;53.120;5.786;2022-12-11T11:51:23;65.20;;;27.10;;
33802;SDS011;20110;53.120;5.786;2022-12-11T11:54:20;51.97;;;21.60;;
33802;SDS011;20110;53.120;5.786;2022-12-11T11:57:10;62.65;;;29.08;;
33802;SDS011;20110;53.120;5.786;2022-12-11T11:59:46;51.38;;;20.20;;
33802;SDS011;20110;53.120;5.786;2022-12-11T12:02:19;65.88;;;27.42;;
33802;SDS011;20110;53.120;5.786;2022-12-11T12:04:47;51.97;;;23.05;;
33802;SDS011;20110;53.120;5.786;2022-12-11T12:10:20;65.47;;;26.00;;
33802;SDS011;20110;53.120;5.786;2022-12-11T12:13:52;40.22;;;20.52;;
33802;SDS011;20110;53.120;5.786;2022-12-11T12:16:17;63.30;;;23.42;;
33802;SDS011;20110;53.120;5.786;2022-12-11T12:19:11;61.30;;;26.92;;
33802;SDS011;20110;53.120;5.786;2022-12-11T12:22:15;58.63;;;25.55;;
33802;SDS011;20110;53.120;5.786;2022-12-11T12:34:38;61.53;;;28.10;;
33802;SDS011;20110;53.120;5.786;2022-12-11T12:48:58;54.40;;;23.30;;
33802;SDS011;20110;53.120;5.786;2022-12-11T12:51:28;51.55;;;21.42;;
33802;SDS011;20110;53.120;5.786;2022-12-11T12:53:59;76.15;;;29.88;;
33802;SDS011;20110;53.120;5.786;2022-12-11T12:56:28;51.08;;;20.92;;
33802;SDS011;20110;53.120;5.786;2022-12-11T12:58:56;65.55;;;27.58;;
33802;SDS011;20110;53.120;5.786;2022-12-11T13:01:26;52.03;;;23.85;;
33802;SDS011;20110;53.120;5.786;2022-12-11T13:03:55;64.10;;;26.98;;
33802;SDS011;20110;53.120;5.786;2022-12-11T13:09:36;61.65;;;28.60;;
33802;SDS011;20110;53.120;5.786;2022-12-11T13:11:55;56.78;;;23.00;;
33802;SDS011;20110;53.120;5.786;2022-12-11T13:19:48;57.17;;;24.77;;
33802;SDS011;20110;53.120;5.786;2022-12-11T13:22:28;47.65;;;20.77;;
33802;SDS011;20110;53.120;5.786;2022-12-11T13:24:59;47.35;;;21.60;;
33802;SDS011;20110;53.120;5.786;2022-12-11T13:32:39;47.33;;;20.50;;
33802;SDS011;20110;53.120;5.786;2022-12-11T13:35:14;40.33;;;19.17;;
33802;SDS011;20110;53.120;5.786;2022-12-11T13:37:42;58.78;;;25.30;;
33802;SDS011;20110;53.120;5.786;2022-12-11T13:40:14;40.95;;;18.27;;
33802;SDS011;20110;53.120;5.786;2022-12-11T13:42:50;53.00;;;22.05;;
33802;SDS011;20110;53.120;5.786;2022-12-11T13:45:50;38.65;;;16.88;;
33802;SDS011;20110;53.120;5.786;2022-12-11T13:48:22;62.00;;;25.48;;
33802;SDS011;20110;53.120;5.786;2022-12-11T13:50:57;52.63;;;21.35;;
33802;SDS011;20110;53.120;5.786;2022-12-11T13:53:24;49.95;;;21.35;;
33802;SDS011;20110;53.120;5.786;2022-12-11T13:55:57;65.65;;;25.60;;
33802;SDS011;20110;53.120;5.786;2022-12-11T13:58:34;34.35;;;16.63;;
33802;SDS011;20110;53.120;5.786;2022-12-11T14:01:14;42.22;;;19.48;;
33802;SDS011;20110;53.120;5.786;2022-12-11T14:03:52;50.78;;;20.90;;
33802;SDS011;20110;53.120;5.786;2022-12-11T14:06:23;42.25;;;18.17;;
33802;SDS011;20110;53.120;5.786;2022-12-11T14:08:52;52.92;;;23.60;;
33802;SDS011;20110;53.120;5.786;2022-12-11T14:11:27;44.75;;;19.25;;
33802;SDS011;20110;53.120;5.786;2022-12-11T14:14:00;60.35;;;26.52;;
33802;SDS011;20110;53.120;5.786;2022-12-11T14:16:29;45.42;;;21.88;;
33802;SDS011;20110;53.120;5.786;2022-12-11T14:18:58;55.78;;;24.25;;
33802;SDS011;20110;53.120;5.786;2022-12-11T14:21:30;51.92;;;22.08;;
33802;SDS011;20110;53.120;5.786;2022-12-11T14:23:57;43.20;;;19.55;;
33802;SDS011;20110;53.120;5.786;2022-12-11T14:26:31;36.17;;;15.80;;
33802;SDS011;20110;53.120;5.786;2022-12-11T14:29:02;51.90;;;24.02;;
33802;SDS011;20110;53.120;5.786;2022-12-11T14:31:33;59.67;;;25.15;;
33802;SDS011;20110;53.120;5.786;2022-12-11T14:34:12;57.15;;;25.10;;
33802;SDS011;20110;53.120;5.786;2022-12-11T14:36:46;65.13;;;25.25;;
33802;SDS011;20110;53.120;5.786;2022-12-11T14:39:15;55.70;;;24.67;;
33802;SDS011;20110;53.120;5.786;2022-12-11T14:42:02;53.33;;;23.00;;
33802;SDS011;20110;53.120;5.786;2022-12-11T14:44:42;52.53;;;24.35;;
33802;SDS011;20110;53.120;5.786;2022-12-11T14:47:18;54.50;;;23.85;;
33802;SDS011;20110;53.120;5.786;2022-12-11T14:49:52;61.63;;;26.52;;
33802;SDS011;20110;53.120;5.786;2022-12-11T14:52:42;69.53;;;27.45;;
33802;SDS011;20110;53.120;5.786;2022-12-11T14:55:26;73.95;;;29.00;;
33802;SDS011;20110;53.120;5.786;2022-12-11T14:58:03;74.97;;;30.17;;
33802;SDS011;20110;53.120;5.786;2022-12-11T15:00:43;69.32;;;29.85;;
33802;SDS011;20110;53.120;5.786;2022-12-11T15:03:32;71.15;;;26.88;;
33802;SDS011;20110;53.120;5.786;2022-12-11T15:06:02;63.58;;;25.85;;
33802;SDS011;20110;53.120;5.786;2022-12-11T15:08:53;61.90;;;26.90;;
33802;SDS011;20110;53.120;5.786;2022-12-11T15:11:20;63.17;;;28.33;;
33802;SDS011;20110;53.120;5.786;2022-12-11T15:13:56;64.80;;;27.33;;
33802;SDS011;20110;53.120;5.786;2022-12-11T15:16:27;58.92;;;24.60;;
33802;SDS011;20110;53.120;5.786;2022-12-11T15:18:57;59.25;;;25.63;;
33802;SDS011;20110;53.120;5.786;2022-12-11T15:21:28;63.20;;;25.08;;
33802;SDS011;20110;53.120;5.786;2022-12-11T15:23:58;63.38;;;27.17;;
33802;SDS011;20110;53.120;5.786;2022-12-11T15:26:32;63.28;;;26.45;;
33802;SDS011;20110;53.120;5.786;2022-12-11T15:29:21;60.85;;;24.73;;
33802;SDS011;20110;53.120;5.786;2022-12-11T15:34:53;53.92;;;23.25;;
33802;SDS011;20110;53.120;5.786;2022-12-11T15:37:27;57.58;;;24.15;;
33802;SDS011;20110;53.120;5.786;2022-12-11T15:39:55;56.08;;;24.35;;
33802;SDS011;20110;53.120;5.786;2022-12-11T15:42:34;65.68;;;25.98;;
33802;SDS011;20110;53.120;5.786;2022-12-11T15:45:04;57.20;;;22.95;;
33802;SDS011;20110;53.120;5.786;2022-12-11T15:47:39;57.45;;;24.27;;
33802;SDS011;20110;53.120;5.786;2022-12-11T15:50:27;51.92;;;22.70;;
33802;SDS011;20110;53.120;5.786;2022-12-11T15:52:54;60.70;;;24.38;;
33802;SDS011;20110;53.120;5.786;2022-12-11T15:55:21;61.85;;;24.95;;
33802;SDS011;20110;53.120;5.786;2022-12-11T16:00:19;57.83;;;25.25;;
33802;SDS011;20110;53.120;5.786;2022-12-11T16:02:48;58.80;;;23.85;;
33802;SDS011;20110;53.120;5.786;2022-12-11T16:05:14;51.25;;;21.98;;
33802;SDS011;20110;53.120;5.786;2022-12-11T16:07:40;56.38;;;23.20;;
33802;SDS011;20110;53.120;5.786;2022-12-11T16:10:06;53.63;;;23.52;;
33802;SDS011;20110;53.120;5.786;2022-12-11T16:12:41;53.13;;;23.42;;
33802;SDS011;20110;53.120;5.786;2022-12-11T16:15:08;58.90;;;24.48;;
33802;SDS011;20110;53.120;5.786;2022-12-11T16:17:36;52.63;;;21.98;;
33802;SDS011;20110;53.120;5.786;2022-12-11T16:20:04;59.22;;;24.73;;